sensor_id;sensor_type;location;lat;lon;timestamp;P1;durP1;ratioP1;P2;durP2;ratioP2
73023;SDS011;72676;47.526;8.538;2024-01-30T00:00:44;15.53;;;7.30;;
73023;SDS011;72676;47.526;8.538;2024-01-30T00:03:11;23.07;;;7.20;;
73023;SDS011;72676;47.526;8.538;2024-01-30T00:05:38;25.03;;;7.10;;
73023;SDS011;72676;47.526;8.538;2024-01-30T00:08:05;24.20;;;7.47;;
73023;SDS011;72676;47.526;8.538;2024-01-30T00:10:32;22.70;;;7.30;;
73023;SDS011;72676;47.526;8.538;2024-01-30T00:12:58;10.93;;;6.80;;
73023;SDS011;72676;47.526;8.538;2024-01-30T00:15:25;15.93;;;6.80;;
73023;SDS011;72676;47.526;8.538;2024-01-30T00:17:51;15.47;;;7.07;;
73023;SDS011;72676;47.526;8.538;2024-01-30T00:20:20;12.00;;;7.80;;
73023;SDS011;72676;47.526;8.538;2024-01-30T00:22:46;11.10;;;7.20;;
73023;SDS011;72676;47.526;8.538;2024-01-30T00:25:13;12.97;;;6.93;;
73023;SDS011;72676;47.526;8.538;2024-01-30T00:27:40;29.33;;;6.73;;
73023;SDS011;72676;47.526;8.538;2024-01-30T00:30:06;12.43;;;6.93;;
73023;SDS011;72676;47.526;8.538;2024-01-30T00:32:33;21.50;;;7.17;;
73023;SDS011;72676;47.526;8.538;2024-01-30T00:35:00;24.87;;;7.63;;
73023;SDS011;72676;47.526;8.538;2024-01-30T00:37:27;14.30;;;7.87;;
73023;SDS011;72676;47.526;8.538;2024-01-30T00:39:53;13.30;;;6.80;;
73023;SDS011;72676;47.526;8.538;2024-01-30T00:42:20;14.00;;;7.17;;
73023;SDS011;72676;47.526;8.538;2024-01-30T00:44:47;12.23;;;6.83;;
73023;SDS011;72676;47.526;8.538;2024-01-30T00:47:14;12.97;;;6.83;;
73023;SDS011;72676;47.526;8.538;2024-01-30T00:49:40;17.50;;;8.30;;
73023;SDS011;72676;47.526;8.538;2024-01-30T00:52:07;13.13;;;6.70;;
73023;SDS011;72676;47.526;8.538;2024-01-30T00:54:34;15.70;;;6.63;;
73023;SDS011;72676;47.526;8.538;2024-01-30T00:57:00;15.97;;;6.60;;
73023;SDS011;72676;47.526;8.538;2024-01-30T00:59:27;16.40;;;6.37;;
73023;SDS011;72676;47.526;8.538;2024-01-30T01:01:53;11.83;;;6.80;;
73023;SDS011;72676;47.526;8.538;2024-01-30T01:04:20;10.27;;;6.43;;
73023;SDS011;72676;47.526;8.538;2024-01-30T01:06:47;8.73;;;6.47;;
73023;SDS011;72676;47.526;8.538;2024-01-30T01:09:14;10.10;;;6.93;;
73023;SDS011;72676;47.526;8.538;2024-01-30T01:11:40;12.60;;;5.73;;
73023;SDS011;72676;47.526;8.538;2024-01-30T01:14:07;11.80;;;6.50;;
73023;SDS011;72676;47.526;8.538;2024-01-30T01:16:33;9.07;;;6.10;;
73023;SDS011;72676;47.526;8.538;2024-01-30T01:19:00;18.67;;;7.00;;
73023;SDS011;72676;47.526;8.538;2024-01-30T01:21:27;10.90;;;6.47;;
73023;SDS011;72676;47.526;8.538;2024-01-30T01:23:54;19.90;;;6.20;;
73023;SDS011;72676;47.526;8.538;2024-01-30T01:26:20;8.43;;;6.20;;
73023;SDS011;72676;47.526;8.538;2024-01-30T01:28:47;53.70;;;7.73;;
73023;SDS011;72676;47.526;8.538;2024-01-30T01:31:14;8.40;;;6.20;;
73023;SDS011;72676;47.526;8.538;2024-01-30T01:33:41;9.70;;;6.30;;
73023;SDS011;72676;47.526;8.538;2024-01-30T01:36:08;9.40;;;5.90;;
73023;SDS011;72676;47.526;8.538;2024-01-30T01:38:34;15.30;;;6.37;;
73023;SDS011;72676;47.526;8.538;2024-01-30T01:41:01;12.20;;;6.60;;
73023;SDS011;72676;47.526;8.538;2024-01-30T01:43:27;10.30;;;5.70;;
73023;SDS011;72676;47.526;8.538;2024-01-30T01:45:54;9.40;;;6.30;;
73023;SDS011;72676;47.526;8.538;2024-01-30T01:48:20;9.60;;;6.47;;
73023;SDS011;72676;47.526;8.538;2024-01-30T01:50:47;8.63;;;6.03;;
73023;SDS011;72676;47.526;8.538;2024-01-30T01:53:15;8.23;;;5.70;;
73023;SDS011;72676;47.526;8.538;2024-01-30T01:55:42;10.30;;;5.93;;
73023;SDS011;72676;47.526;8.538;2024-01-30T01:58:09;9.23;;;5.90;;
73023;SDS011;72676;47.526;8.538;2024-01-30T02:00:39;11.10;;;6.20;;
73023;SDS011;72676;47.526;8.538;2024-01-30T02:03:09;8.37;;;5.97;;
73023;SDS011;72676;47.526;8.538;2024-01-30T02:05:37;7.27;;;5.27;;
73023;SDS011;72676;47.526;8.538;2024-01-30T02:08:05;7.93;;;5.93;;
73023;SDS011;72676;47.526;8.538;2024-01-30T02:10:32;9.60;;;6.30;;
73023;SDS011;72676;47.526;8.538;2024-01-30T02:12:58;8.97;;;6.00;;
73023;SDS011;72676;47.526;8.538;2024-01-30T02:15:25;11.10;;;6.30;;
73023;SDS011;72676;47.526;8.538;2024-01-30T02:17:51;9.43;;;6.57;;
73023;SDS011;72676;47.526;8.538;2024-01-30T02:20:18;10.13;;;6.20;;
73023;SDS011;72676;47.526;8.538;2024-01-30T02:22:45;9.20;;;5.93;;
73023;SDS011;72676;47.526;8.538;2024-01-30T02:25:13;9.00;;;5.70;;
73023;SDS011;72676;47.526;8.538;2024-01-30T02:27:39;8.50;;;5.87;;
73023;SDS011;72676;47.526;8.538;2024-01-30T02:30:06;9.70;;;6.10;;
73023;SDS011;72676;47.526;8.538;2024-01-30T02:32:33;12.00;;;6.07;;
73023;SDS011;72676;47.526;8.538;2024-01-30T02:35:00;9.27;;;6.30;;
73023;SDS011;72676;47.526;8.538;2024-01-30T02:37:26;8.73;;;5.93;;
73023;SDS011;72676;47.526;8.538;2024-01-30T02:39:53;11.87;;;6.50;;
73023;SDS011;72676;47.526;8.538;2024-01-30T02:42:19;12.10;;;6.70;;
73023;SDS011;72676;47.526;8.538;2024-01-30T02:44:46;9.70;;;5.83;;
73023;SDS011;72676;47.526;8.538;2024-01-30T02:47:13;9.53;;;6.47;;
73023;SDS011;72676;47.526;8.538;2024-01-30T02:49:39;14.60;;;6.60;;
73023;SDS011;72676;47.526;8.538;2024-01-30T02:52:06;12.63;;;6.23;;
73023;SDS011;72676;47.526;8.538;2024-01-30T02:54:32;17.40;;;6.70;;
73023;SDS011;72676;47.526;8.538;2024-01-30T02:56:59;12.07;;;6.77;;
73023;SDS011;72676;47.526;8.538;2024-01-30T02:59:25;15.90;;;7.83;;
73023;SDS011;72676;47.526;8.538;2024-01-30T03:01:52;9.40;;;6.77;;
73023;SDS011;72676;47.526;8.538;2024-01-30T03:04:18;10.87;;;7.50;;
73023;SDS011;72676;47.526;8.538;2024-01-30T03:06:45;19.53;;;7.00;;
73023;SDS011;72676;47.526;8.538;2024-01-30T03:09:15;19.10;;;6.40;;
73023;SDS011;72676;47.526;8.538;2024-01-30T03:11:43;9.67;;;6.30;;
73023;SDS011;72676;47.526;8.538;2024-01-30T03:14:09;18.47;;;7.20;;
73023;SDS011;72676;47.526;8.538;2024-01-30T03:16:38;10.20;;;6.77;;
73023;SDS011;72676;47.526;8.538;2024-01-30T03:19:06;11.37;;;7.17;;
73023;SDS011;72676;47.526;8.538;2024-01-30T03:21:36;19.97;;;7.50;;
73023;SDS011;72676;47.526;8.538;2024-01-30T03:24:03;9.90;;;6.30;;
73023;SDS011;72676;47.526;8.538;2024-01-30T03:26:30;23.27;;;6.93;;
73023;SDS011;72676;47.526;8.538;2024-01-30T03:28:56;10.77;;;6.10;;
73023;SDS011;72676;47.526;8.538;2024-01-30T03:31:23;11.20;;;6.13;;
73023;SDS011;72676;47.526;8.538;2024-01-30T03:33:50;14.50;;;6.60;;
73023;SDS011;72676;47.526;8.538;2024-01-30T03:36:16;15.03;;;6.47;;
73023;SDS011;72676;47.526;8.538;2024-01-30T03:38:43;9.50;;;6.27;;
73023;SDS011;72676;47.526;8.538;2024-01-30T03:41:10;8.90;;;6.20;;
73023;SDS011;72676;47.526;8.538;2024-01-30T03:43:36;11.33;;;7.10;;
73023;SDS011;72676;47.526;8.538;2024-01-30T03:46:03;9.33;;;6.23;;
73023;SDS011;72676;47.526;8.538;2024-01-30T03:48:30;13.07;;;6.57;;
73023;SDS011;72676;47.526;8.538;2024-01-30T03:50:56;9.07;;;6.63;;
73023;SDS011;72676;47.526;8.538;2024-01-30T03:53:23;9.07;;;6.50;;
73023;SDS011;72676;47.526;8.538;2024-01-30T03:55:50;8.20;;;5.73;;
73023;SDS011;72676;47.526;8.538;2024-01-30T03:58:16;7.03;;;5.53;;
73023;SDS011;72676;47.526;8.538;2024-01-30T04:00:43;12.57;;;6.80;;
73023;SDS011;72676;47.526;8.538;2024-01-30T04:03:10;11.13;;;5.90;;
73023;SDS011;72676;47.526;8.538;2024-01-30T04:05:37;11.30;;;6.20;;
73023;SDS011;72676;47.526;8.538;2024-01-30T04:08:04;14.37;;;7.07;;
73023;SDS011;72676;47.526;8.538;2024-01-30T04:10:30;7.60;;;5.60;;
73023;SDS011;72676;47.526;8.538;2024-01-30T04:12:57;8.73;;;6.30;;
73023;SDS011;72676;47.526;8.538;2024-01-30T04:15:23;9.47;;;6.50;;
73023;SDS011;72676;47.526;8.538;2024-01-30T04:17:50;22.43;;;6.60;;
73023;SDS011;72676;47.526;8.538;2024-01-30T04:20:17;9.50;;;6.23;;
73023;SDS011;72676;47.526;8.538;2024-01-30T04:22:46;11.23;;;6.17;;
73023;SDS011;72676;47.526;8.538;2024-01-30T04:25:13;11.47;;;6.07;;
73023;SDS011;72676;47.526;8.538;2024-01-30T04:27:40;7.30;;;5.37;;
73023;SDS011;72676;47.526;8.538;2024-01-30T04:30:07;8.37;;;6.10;;
73023;SDS011;72676;47.526;8.538;2024-01-30T04:32:34;9.83;;;6.20;;
73023;SDS011;72676;47.526;8.538;2024-01-30T04:35:02;7.83;;;5.93;;
73023;SDS011;72676;47.526;8.538;2024-01-30T04:37:33;12.50;;;5.87;;
73023;SDS011;72676;47.526;8.538;2024-01-30T04:40:00;19.00;;;7.07;;
73023;SDS011;72676;47.526;8.538;2024-01-30T04:42:27;8.90;;;5.50;;
73023;SDS011;72676;47.526;8.538;2024-01-30T04:44:53;13.23;;;6.80;;
73023;SDS011;72676;47.526;8.538;2024-01-30T04:47:20;8.30;;;6.00;;
73023;SDS011;72676;47.526;8.538;2024-01-30T04:49:46;7.43;;;5.43;;
73023;SDS011;72676;47.526;8.538;2024-01-30T04:52:13;9.10;;;6.10;;
73023;SDS011;72676;47.526;8.538;2024-01-30T04:54:39;11.47;;;6.40;;
73023;SDS011;72676;47.526;8.538;2024-01-30T04:57:06;10.37;;;6.83;;
73023;SDS011;72676;47.526;8.538;2024-01-30T04:59:35;9.70;;;6.30;;
73023;SDS011;72676;47.526;8.538;2024-01-30T05:02:02;11.60;;;5.57;;
73023;SDS011;72676;47.526;8.538;2024-01-30T05:04:29;8.13;;;5.10;;
73023;SDS011;72676;47.526;8.538;2024-01-30T05:06:56;9.50;;;5.97;;
73023;SDS011;72676;47.526;8.538;2024-01-30T05:09:23;9.10;;;6.37;;
73023;SDS011;72676;47.526;8.538;2024-01-30T05:11:50;14.53;;;5.93;;
73023;SDS011;72676;47.526;8.538;2024-01-30T05:14:16;9.40;;;6.10;;
73023;SDS011;72676;47.526;8.538;2024-01-30T05:16:44;22.53;;;6.33;;
73023;SDS011;72676;47.526;8.538;2024-01-30T05:19:13;9.07;;;5.90;;
73023;SDS011;72676;47.526;8.538;2024-01-30T05:21:41;8.80;;;6.00;;
73023;SDS011;72676;47.526;8.538;2024-01-30T05:24:08;12.50;;;6.40;;
73023;SDS011;72676;47.526;8.538;2024-01-30T05:26:36;10.23;;;6.10;;
73023;SDS011;72676;47.526;8.538;2024-01-30T05:29:03;10.80;;;6.20;;
73023;SDS011;72676;47.526;8.538;2024-01-30T05:31:30;16.83;;;6.57;;
73023;SDS011;72676;47.526;8.538;2024-01-30T05:33:56;8.53;;;5.50;;
73023;SDS011;72676;47.526;8.538;2024-01-30T05:36:23;9.00;;;6.20;;
73023;SDS011;72676;47.526;8.538;2024-01-30T05:38:49;11.77;;;6.20;;
73023;SDS011;72676;47.526;8.538;2024-01-30T05:41:16;10.73;;;5.87;;
73023;SDS011;72676;47.526;8.538;2024-01-30T05:43:43;16.30;;;7.20;;
73023;SDS011;72676;47.526;8.538;2024-01-30T05:46:09;11.87;;;7.17;;
73023;SDS011;72676;47.526;8.538;2024-01-30T05:48:36;12.03;;;7.03;;
73023;SDS011;72676;47.526;8.538;2024-01-30T05:51:03;14.73;;;7.30;;
73023;SDS011;72676;47.526;8.538;2024-01-30T05:53:30;14.77;;;7.00;;
73023;SDS011;72676;47.526;8.538;2024-01-30T05:55:57;15.73;;;6.70;;
73023;SDS011;72676;47.526;8.538;2024-01-30T05:58:23;12.23;;;6.30;;
73023;SDS011;72676;47.526;8.538;2024-01-30T06:00:50;16.50;;;8.63;;
73023;SDS011;72676;47.526;8.538;2024-01-30T06:03:16;23.67;;;9.40;;
73023;SDS011;72676;47.526;8.538;2024-01-30T06:05:43;13.30;;;8.17;;
73023;SDS011;72676;47.526;8.538;2024-01-30T06:08:09;15.40;;;9.37;;
73023;SDS011;72676;47.526;8.538;2024-01-30T06:10:36;12.63;;;8.27;;
73023;SDS011;72676;47.526;8.538;2024-01-30T06:13:03;13.17;;;8.20;;
73023;SDS011;72676;47.526;8.538;2024-01-30T06:15:30;14.13;;;7.80;;
73023;SDS011;72676;47.526;8.538;2024-01-30T06:17:56;13.80;;;7.77;;
73023;SDS011;72676;47.526;8.538;2024-01-30T06:20:23;12.03;;;7.63;;
73023;SDS011;72676;47.526;8.538;2024-01-30T06:22:50;18.50;;;8.40;;
73023;SDS011;72676;47.526;8.538;2024-01-30T06:25:16;20.13;;;7.70;;
73023;SDS011;72676;47.526;8.538;2024-01-30T06:27:43;11.17;;;7.43;;
73023;SDS011;72676;47.526;8.538;2024-01-30T06:30:10;13.00;;;7.87;;
73023;SDS011;72676;47.526;8.538;2024-01-30T06:32:37;14.90;;;7.97;;
73023;SDS011;72676;47.526;8.538;2024-01-30T06:35:05;17.23;;;8.07;;
73023;SDS011;72676;47.526;8.538;2024-01-30T06:37:32;15.20;;;8.63;;
73023;SDS011;72676;47.526;8.538;2024-01-30T06:39:58;19.43;;;9.20;;
73023;SDS011;72676;47.526;8.538;2024-01-30T06:42:25;14.00;;;8.57;;
73023;SDS011;72676;47.526;8.538;2024-01-30T06:44:52;13.63;;;7.87;;
73023;SDS011;72676;47.526;8.538;2024-01-30T06:47:18;12.37;;;8.07;;
73023;SDS011;72676;47.526;8.538;2024-01-30T06:49:45;16.30;;;8.40;;
73023;SDS011;72676;47.526;8.538;2024-01-30T06:52:11;14.03;;;7.70;;
73023;SDS011;72676;47.526;8.538;2024-01-30T06:54:38;13.63;;;7.33;;
73023;SDS011;72676;47.526;8.538;2024-01-30T06:57:05;11.00;;;7.10;;
73023;SDS011;72676;47.526;8.538;2024-01-30T06:59:37;17.53;;;7.97;;
73023;SDS011;72676;47.526;8.538;2024-01-30T07:02:09;11.63;;;7.10;;
73023;SDS011;72676;47.526;8.538;2024-01-30T07:04:36;14.07;;;8.23;;
73023;SDS011;72676;47.526;8.538;2024-01-30T07:07:12;15.20;;;7.87;;
73023;SDS011;72676;47.526;8.538;2024-01-30T07:09:39;12.47;;;8.03;;
73023;SDS011;72676;47.526;8.538;2024-01-30T07:12:07;11.93;;;7.50;;
73023;SDS011;72676;47.526;8.538;2024-01-30T07:14:33;16.57;;;7.10;;
73023;SDS011;72676;47.526;8.538;2024-01-30T07:17:00;15.63;;;8.20;;
73023;SDS011;72676;47.526;8.538;2024-01-30T07:19:27;17.53;;;8.30;;
73023;SDS011;72676;47.526;8.538;2024-01-30T07:21:54;14.37;;;7.73;;
73023;SDS011;72676;47.526;8.538;2024-01-30T07:24:20;15.50;;;7.87;;
73023;SDS011;72676;47.526;8.538;2024-01-30T07:26:47;26.60;;;8.13;;
73023;SDS011;72676;47.526;8.538;2024-01-30T07:29:13;13.37;;;7.40;;
73023;SDS011;72676;47.526;8.538;2024-01-30T07:31:40;13.30;;;8.43;;
73023;SDS011;72676;47.526;8.538;2024-01-30T07:34:06;12.30;;;7.60;;
73023;SDS011;72676;47.526;8.538;2024-01-30T07:36:33;41.17;;;8.67;;
73023;SDS011;72676;47.526;8.538;2024-01-30T07:38:59;13.20;;;7.20;;
73023;SDS011;72676;47.526;8.538;2024-01-30T07:41:26;17.47;;;9.10;;
73023;SDS011;72676;47.526;8.538;2024-01-30T07:43:53;11.30;;;6.63;;
73023;SDS011;72676;47.526;8.538;2024-01-30T07:46:20;17.40;;;9.20;;
73023;SDS011;72676;47.526;8.538;2024-01-30T07:48:46;19.47;;;8.30;;
73023;SDS011;72676;47.526;8.538;2024-01-30T07:51:13;13.40;;;7.63;;
73023;SDS011;72676;47.526;8.538;2024-01-30T07:53:42;16.73;;;7.53;;
73023;SDS011;72676;47.526;8.538;2024-01-30T07:56:09;12.00;;;7.40;;
73023;SDS011;72676;47.526;8.538;2024-01-30T07:58:36;19.03;;;8.70;;
73023;SDS011;72676;47.526;8.538;2024-01-30T08:01:03;12.27;;;7.93;;
73023;SDS011;72676;47.526;8.538;2024-01-30T08:03:30;18.47;;;8.60;;
73023;SDS011;72676;47.526;8.538;2024-01-30T08:05:56;32.93;;;10.50;;
73023;SDS011;72676;47.526;8.538;2024-01-30T08:08:23;17.20;;;9.27;;
73023;SDS011;72676;47.526;8.538;2024-01-30T08:10:49;40.73;;;11.13;;
73023;SDS011;72676;47.526;8.538;2024-01-30T08:13:16;20.83;;;10.07;;
73023;SDS011;72676;47.526;8.538;2024-01-30T08:15:43;27.30;;;9.97;;
73023;SDS011;72676;47.526;8.538;2024-01-30T08:18:09;17.00;;;9.77;;
73023;SDS011;72676;47.526;8.538;2024-01-30T08:20:36;29.70;;;10.10;;
73023;SDS011;72676;47.526;8.538;2024-01-30T08:23:02;22.63;;;9.90;;
73023;SDS011;72676;47.526;8.538;2024-01-30T08:25:29;26.43;;;10.03;;
73023;SDS011;72676;47.526;8.538;2024-01-30T08:27:56;18.70;;;10.13;;
73023;SDS011;72676;47.526;8.538;2024-01-30T08:30:24;22.80;;;10.60;;
73023;SDS011;72676;47.526;8.538;2024-01-30T08:32:51;22.50;;;10.20;;
73023;SDS011;72676;47.526;8.538;2024-01-30T08:35:18;20.03;;;10.87;;
73023;SDS011;72676;47.526;8.538;2024-01-30T08:37:45;24.93;;;11.20;;
73023;SDS011;72676;47.526;8.538;2024-01-30T08:40:11;22.10;;;11.20;;
73023;SDS011;72676;47.526;8.538;2024-01-30T08:42:38;27.03;;;13.73;;
73023;SDS011;72676;47.526;8.538;2024-01-30T08:45:04;22.77;;;11.67;;
73023;SDS011;72676;47.526;8.538;2024-01-30T08:47:31;26.63;;;13.00;;
73023;SDS011;72676;47.526;8.538;2024-01-30T08:49:59;24.30;;;11.67;;
73023;SDS011;72676;47.526;8.538;2024-01-30T08:52:26;28.50;;;12.80;;
73023;SDS011;72676;47.526;8.538;2024-01-30T08:54:53;36.97;;;13.97;;
73023;SDS011;72676;47.526;8.538;2024-01-30T08:57:19;23.00;;;12.40;;
73023;SDS011;72676;47.526;8.538;2024-01-30T08:59:46;24.33;;;12.70;;
73023;SDS011;72676;47.526;8.538;2024-01-30T09:02:13;27.50;;;12.27;;
73023;SDS011;72676;47.526;8.538;2024-01-30T09:04:42;25.63;;;12.13;;
73023;SDS011;72676;47.526;8.538;2024-01-30T09:07:09;26.10;;;12.93;;
73023;SDS011;72676;47.526;8.538;2024-01-30T09:09:40;32.23;;;14.70;;
73023;SDS011;72676;47.526;8.538;2024-01-30T09:12:08;22.40;;;12.47;;
73023;SDS011;72676;47.526;8.538;2024-01-30T09:14:38;26.30;;;12.60;;
73023;SDS011;72676;47.526;8.538;2024-01-30T09:17:05;25.23;;;12.80;;
73023;SDS011;72676;47.526;8.538;2024-01-30T09:19:32;25.00;;;14.37;;
73023;SDS011;72676;47.526;8.538;2024-01-30T09:21:59;30.20;;;14.73;;
73023;SDS011;72676;47.526;8.538;2024-01-30T09:24:26;28.73;;;13.83;;
73023;SDS011;72676;47.526;8.538;2024-01-30T09:26:53;23.20;;;13.00;;
73023;SDS011;72676;47.526;8.538;2024-01-30T09:29:19;22.77;;;12.60;;
73023;SDS011;72676;47.526;8.538;2024-01-30T09:31:46;25.27;;;11.60;;
73023;SDS011;72676;47.526;8.538;2024-01-30T09:34:13;23.13;;;12.73;;
73023;SDS011;72676;47.526;8.538;2024-01-30T09:36:40;27.53;;;12.43;;
73023;SDS011;72676;47.526;8.538;2024-01-30T09:39:07;29.60;;;13.80;;
73023;SDS011;72676;47.526;8.538;2024-01-30T09:41:33;25.93;;;12.60;;
73023;SDS011;72676;47.526;8.538;2024-01-30T09:44:12;23.67;;;12.90;;
73023;SDS011;72676;47.526;8.538;2024-01-30T09:46:39;27.40;;;12.57;;
73023;SDS011;72676;47.526;8.538;2024-01-30T09:49:06;25.13;;;12.37;;
73023;SDS011;72676;47.526;8.538;2024-01-30T09:51:35;21.00;;;11.50;;
73023;SDS011;72676;47.526;8.538;2024-01-30T09:54:02;29.70;;;13.90;;
73023;SDS011;72676;47.526;8.538;2024-01-30T09:56:29;27.23;;;14.70;;
73023;SDS011;72676;47.526;8.538;2024-01-30T09:58:55;35.07;;;13.77;;
73023;SDS011;72676;47.526;8.538;2024-01-30T10:01:22;25.37;;;12.87;;
73023;SDS011;72676;47.526;8.538;2024-01-30T10:03:50;35.53;;;14.37;;
73023;SDS011;72676;47.526;8.538;2024-01-30T10:06:19;29.93;;;13.83;;
73023;SDS011;72676;47.526;8.538;2024-01-30T10:08:49;32.13;;;13.57;;
73023;SDS011;72676;47.526;8.538;2024-01-30T10:11:15;29.70;;;13.97;;
73023;SDS011;72676;47.526;8.538;2024-01-30T10:13:42;25.93;;;13.10;;
73023;SDS011;72676;47.526;8.538;2024-01-30T10:16:08;30.67;;;14.30;;
73023;SDS011;72676;47.526;8.538;2024-01-30T10:18:35;28.77;;;14.53;;
73023;SDS011;72676;47.526;8.538;2024-01-30T10:21:01;27.20;;;13.37;;
73023;SDS011;72676;47.526;8.538;2024-01-30T10:23:29;20.80;;;12.30;;
73023;SDS011;72676;47.526;8.538;2024-01-30T10:26:02;31.53;;;14.07;;
73023;SDS011;72676;47.526;8.538;2024-01-30T10:28:30;25.90;;;13.17;;
73023;SDS011;72676;47.526;8.538;2024-01-30T10:30:57;27.67;;;13.80;;
73023;SDS011;72676;47.526;8.538;2024-01-30T10:33:31;23.87;;;12.40;;
73023;SDS011;72676;47.526;8.538;2024-01-30T10:36:01;28.50;;;12.83;;
73023;SDS011;72676;47.526;8.538;2024-01-30T10:38:29;29.90;;;13.27;;
73023;SDS011;72676;47.526;8.538;2024-01-30T10:40:57;20.13;;;11.90;;
73023;SDS011;72676;47.526;8.538;2024-01-30T10:43:24;27.73;;;13.10;;
73023;SDS011;72676;47.526;8.538;2024-01-30T10:45:56;32.97;;;12.67;;
73023;SDS011;72676;47.526;8.538;2024-01-30T10:48:25;31.17;;;12.93;;
73023;SDS011;72676;47.526;8.538;2024-01-30T10:50:55;24.40;;;12.33;;
73023;SDS011;72676;47.526;8.538;2024-01-30T10:53:26;24.00;;;13.20;;
73023;SDS011;72676;47.526;8.538;2024-01-30T10:55:57;20.70;;;11.77;;
73023;SDS011;72676;47.526;8.538;2024-01-30T10:58:25;19.40;;;11.30;;
73023;SDS011;72676;47.526;8.538;2024-01-30T11:00:53;19.17;;;11.70;;
73023;SDS011;72676;47.526;8.538;2024-01-30T11:03:21;20.27;;;11.20;;
73023;SDS011;72676;47.526;8.538;2024-01-30T11:05:51;20.30;;;11.60;;
73023;SDS011;72676;47.526;8.538;2024-01-30T11:08:25;20.10;;;11.83;;
73023;SDS011;72676;47.526;8.538;2024-01-30T11:10:55;18.80;;;11.10;;
73023;SDS011;72676;47.526;8.538;2024-01-30T11:13:27;20.03;;;11.30;;
73023;SDS011;72676;47.526;8.538;2024-01-30T11:15:55;19.63;;;11.70;;
73023;SDS011;72676;47.526;8.538;2024-01-30T11:18:28;20.83;;;12.73;;
73023;SDS011;72676;47.526;8.538;2024-01-30T11:20:57;20.83;;;11.80;;
73023;SDS011;72676;47.526;8.538;2024-01-30T11:23:25;23.70;;;12.47;;
73023;SDS011;72676;47.526;8.538;2024-01-30T11:25:53;25.87;;;11.20;;
73023;SDS011;72676;47.526;8.538;2024-01-30T11:28:21;22.53;;;12.50;;
73023;SDS011;72676;47.526;8.538;2024-01-30T11:30:48;22.10;;;12.07;;
73023;SDS011;72676;47.526;8.538;2024-01-30T11:33:27;26.60;;;12.40;;
73023;SDS011;72676;47.526;8.538;2024-01-30T11:36:00;22.47;;;13.37;;
73023;SDS011;72676;47.526;8.538;2024-01-30T11:38:28;25.20;;;12.63;;
73023;SDS011;72676;47.526;8.538;2024-01-30T11:40:55;27.07;;;12.93;;
73023;SDS011;72676;47.526;8.538;2024-01-30T11:43:23;20.30;;;10.70;;
73023;SDS011;72676;47.526;8.538;2024-01-30T11:45:50;19.90;;;12.03;;
73023;SDS011;72676;47.526;8.538;2024-01-30T11:48:17;22.07;;;11.30;;
73023;SDS011;72676;47.526;8.538;2024-01-30T11:50:44;21.00;;;11.60;;
73023;SDS011;72676;47.526;8.538;2024-01-30T11:53:10;23.70;;;11.50;;
73023;SDS011;72676;47.526;8.538;2024-01-30T11:55:37;26.80;;;13.97;;
73023;SDS011;72676;47.526;8.538;2024-01-30T11:58:04;20.00;;;12.43;;
73023;SDS011;72676;47.526;8.538;2024-01-30T12:00:31;27.50;;;13.60;;
73023;SDS011;72676;47.526;8.538;2024-01-30T12:02:59;25.80;;;12.60;;
73023;SDS011;72676;47.526;8.538;2024-01-30T12:05:27;15.77;;;10.43;;
73023;SDS011;72676;47.526;8.538;2024-01-30T12:07:54;18.20;;;10.87;;
73023;SDS011;72676;47.526;8.538;2024-01-30T12:10:21;19.50;;;11.40;;
73023;SDS011;72676;47.526;8.538;2024-01-30T12:12:51;22.90;;;12.43;;
73023;SDS011;72676;47.526;8.538;2024-01-30T12:15:18;20.20;;;12.13;;
73023;SDS011;72676;47.526;8.538;2024-01-30T12:17:47;21.17;;;12.10;;
73023;SDS011;72676;47.526;8.538;2024-01-30T12:20:15;20.90;;;12.40;;
73023;SDS011;72676;47.526;8.538;2024-01-30T12:22:45;23.37;;;12.57;;
73023;SDS011;72676;47.526;8.538;2024-01-30T12:25:14;21.13;;;11.50;;
73023;SDS011;72676;47.526;8.538;2024-01-30T12:27:46;19.30;;;12.20;;
73023;SDS011;72676;47.526;8.538;2024-01-30T12:30:18;18.10;;;11.90;;
73023;SDS011;72676;47.526;8.538;2024-01-30T12:32:47;28.07;;;11.60;;
73023;SDS011;72676;47.526;8.538;2024-01-30T12:35:16;28.73;;;12.37;;
73023;SDS011;72676;47.526;8.538;2024-01-30T12:37:44;20.77;;;11.70;;
73023;SDS011;72676;47.526;8.538;2024-01-30T12:40:12;23.80;;;11.93;;
73023;SDS011;72676;47.526;8.538;2024-01-30T12:42:41;27.87;;;12.43;;
73023;SDS011;72676;47.526;8.538;2024-01-30T12:45:17;28.80;;;12.23;;
73023;SDS011;72676;47.526;8.538;2024-01-30T12:47:49;22.27;;;12.23;;
73023;SDS011;72676;47.526;8.538;2024-01-30T12:50:16;22.23;;;11.30;;
73023;SDS011;72676;47.526;8.538;2024-01-30T12:52:45;26.40;;;12.30;;
73023;SDS011;72676;47.526;8.538;2024-01-30T12:55:15;29.47;;;12.23;;
73023;SDS011;72676;47.526;8.538;2024-01-30T12:57:42;28.90;;;12.10;;
73023;SDS011;72676;47.526;8.538;2024-01-30T13:00:09;20.47;;;12.17;;
73023;SDS011;72676;47.526;8.538;2024-01-30T13:02:36;32.80;;;12.83;;
73023;SDS011;72676;47.526;8.538;2024-01-30T13:05:03;23.27;;;12.73;;
73023;SDS011;72676;47.526;8.538;2024-01-30T13:07:30;30.13;;;13.57;;
73023;SDS011;72676;47.526;8.538;2024-01-30T13:09:57;29.13;;;14.20;;
73023;SDS011;72676;47.526;8.538;2024-01-30T13:12:29;22.43;;;12.97;;
73023;SDS011;72676;47.526;8.538;2024-01-30T13:14:56;21.80;;;13.20;;
73023;SDS011;72676;47.526;8.538;2024-01-30T13:17:23;25.97;;;14.87;;
73023;SDS011;72676;47.526;8.538;2024-01-30T13:19:49;22.67;;;12.97;;
73023;SDS011;72676;47.526;8.538;2024-01-30T13:22:16;22.10;;;13.80;;
73023;SDS011;72676;47.526;8.538;2024-01-30T13:24:42;23.53;;;13.90;;
73023;SDS011;72676;47.526;8.538;2024-01-30T13:27:09;28.03;;;16.53;;
73023;SDS011;72676;47.526;8.538;2024-01-30T13:29:35;21.70;;;13.87;;
73023;SDS011;72676;47.526;8.538;2024-01-30T13:32:02;25.27;;;13.63;;
73023;SDS011;72676;47.526;8.538;2024-01-30T13:34:28;22.67;;;14.13;;
73023;SDS011;72676;47.526;8.538;2024-01-30T13:36:55;31.13;;;13.90;;
73023;SDS011;72676;47.526;8.538;2024-01-30T13:39:22;24.50;;;14.87;;
73023;SDS011;72676;47.526;8.538;2024-01-30T13:41:55;26.00;;;13.63;;
73023;SDS011;72676;47.526;8.538;2024-01-30T13:44:22;22.60;;;13.53;;
73023;SDS011;72676;47.526;8.538;2024-01-30T13:46:48;31.93;;;13.87;;
73023;SDS011;72676;47.526;8.538;2024-01-30T13:49:15;22.93;;;13.77;;
73023;SDS011;72676;47.526;8.538;2024-01-30T13:51:41;25.70;;;15.10;;
73023;SDS011;72676;47.526;8.538;2024-01-30T13:54:08;30.20;;;14.70;;
73023;SDS011;72676;47.526;8.538;2024-01-30T13:56:35;29.97;;;14.07;;
73023;SDS011;72676;47.526;8.538;2024-01-30T13:59:02;28.93;;;13.60;;
73023;SDS011;72676;47.526;8.538;2024-01-30T14:01:31;31.60;;;16.70;;
73023;SDS011;72676;47.526;8.538;2024-01-30T14:03:58;25.30;;;14.47;;
73023;SDS011;72676;47.526;8.538;2024-01-30T14:06:25;25.23;;;15.00;;
73023;SDS011;72676;47.526;8.538;2024-01-30T14:08:51;25.77;;;14.23;;
73023;SDS011;72676;47.526;8.538;2024-01-30T14:11:26;27.53;;;14.60;;
73023;SDS011;72676;47.526;8.538;2024-01-30T14:13:52;27.10;;;13.07;;
73023;SDS011;72676;47.526;8.538;2024-01-30T14:16:19;23.00;;;13.40;;
73023;SDS011;72676;47.526;8.538;2024-01-30T14:18:46;36.27;;;15.23;;
73023;SDS011;72676;47.526;8.538;2024-01-30T14:21:12;33.00;;;14.37;;
73023;SDS011;72676;47.526;8.538;2024-01-30T14:23:39;22.83;;;13.73;;
73023;SDS011;72676;47.526;8.538;2024-01-30T14:26:05;22.43;;;12.10;;
73023;SDS011;72676;47.526;8.538;2024-01-30T14:28:32;26.53;;;13.10;;
73023;SDS011;72676;47.526;8.538;2024-01-30T14:30:58;28.10;;;12.33;;